createdAt,value
2023-11-14T00:02:25.713Z,4.29
2023-11-14T00:05:13.559Z,4.27
2023-11-14T00:08:00.330Z,4.26
2023-11-14T00:10:47.944Z,4.22
2023-11-14T00:13:34.950Z,4.18
2023-11-14T00:16:22.080Z,4.15
2023-11-14T00:19:09.770Z,4.13
2023-11-14T00:21:56.229Z,4.12
2023-11-14T00:24:46.893Z,4.10
2023-11-14T00:27:33.672Z,4.07
2023-11-14T00:30:20.682Z,4.04
2023-11-14T00:33:08.074Z,4.06
2023-11-14T00:35:57.799Z,4.06
2023-11-14T00:38:44.812Z,4.07
2023-11-14T00:41:34.671Z,4.08
2023-11-14T00:44:23.377Z,4.04
2023-11-14T00:47:12.934Z,4.03
2023-11-14T00:49:59.597Z,4.05
2023-11-14T00:52:47.918Z,4.06
2023-11-14T00:55:35.331Z,4.05
2023-11-14T00:58:23.179Z,4.07
2023-11-14T01:01:09.972Z,4.07
2023-11-14T01:03:58.785Z,4.08
2023-11-14T01:06:45.852Z,4.10
2023-11-14T01:09:32.639Z,4.12
2023-11-14T01:12:19.461Z,4.14
2023-11-14T01:15:07.039Z,4.13
2023-11-14T01:17:53.496Z,4.15
2023-11-14T01:20:40.233Z,4.13
2023-11-14T01:23:27.434Z,4.18
2023-11-14T01:26:14.427Z,4.20
2023-11-14T01:29:01.439Z,4.23
2023-11-14T01:31:49.484Z,4.24
2023-11-14T01:34:36.678Z,4.25
2023-11-14T01:37:24.402Z,4.25
2023-11-14T01:40:11.801Z,4.24
2023-11-14T01:43:04.672Z,4.24
2023-11-14T01:45:52.703Z,4.26
2023-11-14T01:48:39.822Z,4.27
2023-11-14T01:51:27.143Z,4.26
2023-11-14T01:54:15.949Z,4.29
2023-11-14T01:57:03.328Z,4.35
2023-11-14T01:59:50.843Z,4.42
2023-11-14T02:02:37.705Z,4.44
2023-11-14T02:05:24.817Z,4.46
2023-11-14T02:08:11.958Z,4.46
2023-11-14T02:10:59.742Z,4.46
2023-11-14T02:13:46.859Z,4.48
2023-11-14T02:16:54.442Z,4.46
2023-11-14T02:19:42.290Z,4.53
2023-11-14T02:22:31.979Z,4.56
2023-11-14T02:25:20.132Z,4.56
2023-11-14T02:28:07.689Z,4.64
2023-11-14T02:30:55.082Z,4.69
2023-11-14T02:33:42.054Z,4.73
2023-11-14T02:36:31.890Z,4.78
2023-11-14T02:39:18.839Z,4.81
2023-11-14T02:42:06.652Z,4.84
2023-11-14T02:44:53.979Z,4.87
2023-11-14T02:47:41.310Z,4.92
2023-11-14T02:50:30.757Z,4.96
2023-11-14T02:53:17.382Z,4.96
2023-11-14T02:56:05.870Z,4.95
2023-11-14T02:58:52.225Z,4.99
2023-11-14T03:01:39.636Z,5.03
2023-11-14T03:04:26.466Z,5.08
2023-11-14T03:07:13.284Z,5.12
2023-11-14T03:10:00.700Z,5.16
2023-11-14T03:12:47.538Z,5.24
2023-11-14T03:15:34.432Z,5.32
2023-11-14T03:18:21.267Z,5.39
2023-11-14T03:21:07.740Z,5.45
2023-11-14T03:23:54.600Z,5.54
2023-11-14T03:26:41.488Z,5.63
2023-11-14T03:29:27.789Z,5.73
2023-11-14T03:32:14.884Z,5.80
2023-11-14T03:35:06.748Z,5.87
2023-11-14T03:37:54.587Z,5.95
2023-11-14T03:40:41.108Z,6.04
2023-11-14T03:43:27.989Z,6.13
2023-11-14T03:46:14.939Z,6.19
2023-11-14T03:49:02.015Z,6.26
2023-11-14T03:51:49.088Z,6.32
2023-11-14T03:54:37.981Z,6.38
2023-11-14T03:57:24.614Z,6.45
2023-11-14T04:00:12.577Z,6.52
2023-11-14T04:03:02.698Z,6.60
2023-11-14T04:05:50.946Z,6.69
2023-11-14T04:08:38.873Z,6.76
2023-11-14T04:11:25.216Z,6.82
2023-11-14T04:14:11.998Z,6.88
2023-11-14T04:16:58.963Z,6.91
2023-11-14T04:19:46.142Z,7.03
2023-11-14T04:22:33.136Z,7.09
2023-11-14T04:25:19.878Z,7.17
2023-11-14T04:28:06.814Z,7.25
2023-11-14T04:30:53.913Z,7.29
2023-11-14T04:33:40.532Z,7.34
2023-11-14T04:36:27.564Z,7.40
2023-11-14T04:39:14.771Z,7.41
2023-11-14T04:42:02.318Z,7.47
2023-11-14T04:44:52.949Z,7.50
2023-11-14T04:47:40.011Z,7.55
2023-11-14T04:50:26.639Z,7.58
2023-11-14T04:53:13.148Z,7.60
2023-11-14T04:55:59.921Z,7.61
2023-11-14T04:58:46.826Z,7.66
2023-11-14T05:01:34.175Z,7.67
2023-11-14T05:04:20.869Z,7.68
2023-11-14T05:07:07.414Z,7.72
2023-11-14T05:09:54.328Z,7.71
2023-11-14T05:12:41.293Z,7.74
2023-11-14T05:15:27.800Z,7.75
2023-11-14T05:18:14.546Z,7.75
2023-11-14T05:21:01.465Z,7.75
2023-11-14T05:23:47.957Z,7.74
2023-11-14T05:26:34.483Z,7.74
2023-11-14T05:29:21.457Z,7.74
2023-11-14T05:32:10.696Z,7.74
2023-11-14T05:34:57.301Z,7.75
2023-11-14T05:37:45.633Z,7.73
2023-11-14T05:40:32.899Z,7.78
2023-11-14T05:43:20.580Z,7.83
2023-11-14T05:46:07.741Z,7.87
2023-11-14T05:48:55.041Z,7.92
2023-11-14T05:51:42.571Z,7.95
2023-11-14T05:54:29.088Z,7.99
2023-11-14T05:57:17.891Z,8.02
2023-11-14T06:00:06.175Z,8.04
2023-11-14T06:02:58.625Z,8.06
2023-11-14T06:05:45.304Z,8.09
2023-11-14T06:08:32.400Z,8.11
2023-11-14T06:11:19.148Z,8.14
2023-11-14T06:14:05.994Z,8.15
2023-11-14T06:16:52.965Z,8.19
2023-11-14T06:19:39.749Z,8.21
2023-11-14T06:22:26.680Z,8.23
2023-11-14T06:25:13.538Z,8.24
2023-11-14T06:28:00.216Z,8.27
2023-11-14T06:30:46.688Z,8.28
2023-11-14T06:33:34.389Z,8.27
2023-11-14T06:36:22.010Z,8.28
2023-11-14T06:39:08.672Z,8.28
2023-11-14T06:41:55.714Z,8.28
2023-11-14T06:44:46.031Z,8.29
2023-11-14T06:47:33.210Z,8.28
2023-11-14T06:50:29.598Z,8.27
2023-11-14T06:53:24.198Z,8.28
2023-11-14T06:56:15.196Z,8.27
2023-11-14T06:59:01.870Z,8.29
2023-11-14T07:01:53.763Z,8.29
2023-11-14T07:04:41.113Z,8.32
2023-11-14T07:07:28.125Z,8.35
2023-11-14T07:10:15.476Z,8.38
2023-11-14T07:13:03.659Z,8.42
2023-11-14T07:15:50.238Z,8.44
2023-11-14T07:18:38.782Z,8.44
2023-11-14T07:21:25.444Z,8.42
2023-11-14T07:24:12.717Z,8.49
2023-11-14T07:26:59.678Z,8.56
2023-11-14T07:29:47.307Z,8.63
2023-11-14T07:32:34.422Z,8.70
2023-11-14T07:35:22.825Z,8.72
2023-11-14T07:38:09.858Z,8.78
2023-11-14T07:40:56.399Z,8.84
2023-11-14T07:43:42.847Z,8.90
2023-11-14T07:46:29.609Z,8.93
2023-11-14T07:49:16.616Z,8.92
2023-11-14T07:52:03.123Z,9.00
2023-11-14T07:54:50.938Z,9.00
2023-11-14T07:57:37.687Z,9.01
2023-11-14T08:00:25.416Z,9.01
2023-11-14T08:03:12.401Z,9.00
2023-11-14T08:05:59.055Z,9.01
2023-11-14T08:08:45.950Z,9.04
2023-11-14T08:11:39.663Z,9.03
2023-11-14T08:14:26.267Z,9.14
2023-11-14T08:17:12.943Z,9.23
2023-11-14T08:20:00.550Z,9.38
2023-11-14T08:22:47.390Z,9.50
2023-11-14T08:25:34.395Z,9.57
2023-11-14T08:28:21.516Z,9.65
2023-11-14T08:31:08.349Z,9.74
2023-11-14T08:33:56.511Z,9.85
2023-11-14T08:36:44.242Z,9.92
2023-11-14T08:39:31.062Z,10.00
2023-11-14T08:42:18.706Z,10.07
2023-11-14T08:45:05.936Z,10.14
2023-11-14T08:47:52.369Z,10.16
2023-11-14T08:50:40.667Z,10.19
2023-11-14T08:53:27.211Z,10.23
2023-11-14T08:56:14.000Z,10.27
2023-11-14T08:59:01.075Z,10.39
2023-11-14T09:01:49.095Z,10.43
2023-11-14T09:04:35.833Z,10.42
2023-11-14T09:07:22.455Z,10.47
2023-11-14T09:10:09.786Z,10.47
2023-11-14T09:12:57.890Z,10.37
2023-11-14T09:15:44.673Z,10.45
2023-11-14T09:18:33.561Z,10.42
2023-11-14T09:21:21.160Z,10.52
2023-11-14T09:24:11.113Z,10.58
2023-11-14T09:26:58.276Z,10.61
2023-11-14T09:29:44.766Z,10.65
2023-11-14T09:32:32.093Z,10.76
2023-11-14T09:35:19.375Z,10.85
2023-11-14T09:38:06.712Z,10.98
2023-11-14T09:40:54.725Z,11.11
2023-11-14T09:43:42.115Z,11.15
2023-11-14T09:46:32.706Z,11.12
2023-11-14T09:49:19.757Z,11.09
2023-11-14T09:52:07.128Z,10.99
2023-11-14T09:54:54.160Z,10.82
2023-11-14T09:57:41.144Z,10.73
2023-11-14T10:00:29.845Z,10.65
2023-11-14T10:03:17.630Z,10.58
2023-11-14T10:06:05.170Z,10.50
2023-11-14T10:08:58.331Z,10.35
2023-11-14T10:12:12.024Z,10.25
2023-11-14T10:14:55.307Z,10.17
2023-11-14T10:17:49.290Z,10.06
2023-11-14T10:23:40.237Z,9.92
2023-11-14T10:26:28.483Z,9.85
2023-11-14T10:29:19.148Z,9.76
2023-11-14T10:32:13.002Z,9.64
2023-11-14T10:35:18.024Z,9.60
2023-11-14T10:38:19.846Z,9.55
2023-11-14T10:41:07.346Z,9.49
2023-11-14T10:43:54.467Z,9.48
2023-11-14T10:46:54.072Z,9.47
2023-11-14T10:49:47.267Z,9.49
2023-11-14T10:52:37.209Z,9.51
2023-11-14T10:55:25.563Z,9.55
2023-11-14T10:58:14.717Z,9.63
2023-11-14T11:01:04.237Z,9.70
2023-11-14T11:03:54.571Z,9.73
2023-11-14T11:06:41.888Z,9.76
2023-11-14T11:09:28.720Z,9.76
2023-11-14T11:12:16.408Z,9.71
2023-11-14T11:15:04.078Z,9.72
2023-11-14T11:17:59.643Z,9.77
2023-11-14T11:20:46.248Z,9.84
2023-11-14T11:24:30.107Z,9.92
2023-11-14T11:27:26.483Z,10.04
2023-11-14T11:30:14.661Z,10.04
2023-11-14T11:33:34.398Z,10.07
2023-11-14T11:36:24.937Z,10.13
2023-11-14T11:39:12.020Z,10.24
2023-11-14T11:42:00.543Z,10.32
2023-11-14T11:44:47.134Z,10.34
2023-11-14T11:47:38.374Z,10.33
2023-11-14T11:50:34.316Z,10.29
2023-11-14T11:53:41.677Z,10.25
2023-11-14T11:56:37.437Z,10.21
2023-11-14T11:59:25.656Z,10.06
2023-11-14T12:02:14.666Z,10.03
2023-11-14T12:05:03.401Z,10.08
2023-11-14T12:07:50.667Z,10.07
2023-11-14T12:10:37.701Z,10.08
2023-11-14T12:13:28.519Z,10.06
2023-11-14T12:16:15.585Z,9.99
2023-11-14T12:19:03.185Z,9.98
2023-11-14T12:21:50.765Z,9.96
2023-11-14T12:24:37.796Z,9.89
2023-11-14T12:27:24.438Z,9.84
2023-11-14T12:30:14.287Z,9.78
2023-11-14T12:33:08.540Z,9.69
2023-11-14T12:35:58.946Z,9.60
2023-11-14T12:38:45.832Z,9.55
2023-11-14T12:41:33.525Z,9.50
2023-11-14T12:44:20.590Z,9.47
2023-11-14T12:47:12.066Z,9.44
2023-11-14T12:49:58.681Z,9.39
2023-11-14T12:52:45.354Z,9.35
2023-11-14T12:55:31.871Z,9.28
2023-11-14T12:58:18.541Z,9.23
2023-11-14T13:01:04.866Z,9.19
2023-11-14T13:03:51.658Z,9.17
2023-11-14T13:06:39.700Z,9.16
2023-11-14T13:09:27.828Z,9.16
2023-11-14T13:12:14.893Z,9.18
2023-11-14T13:15:01.602Z,9.16
2023-11-14T13:17:48.933Z,9.19
2023-11-14T13:20:35.617Z,9.20
2023-11-14T13:23:23.114Z,9.23
2023-11-14T13:26:11.200Z,9.23
2023-11-14T13:28:58.032Z,9.22
2023-11-14T13:31:44.873Z,9.19
2023-11-14T13:34:36.311Z,9.17
2023-11-14T13:37:23.663Z,9.14
2023-11-14T13:40:12.558Z,9.12
2023-11-14T13:42:59.221Z,9.09
2023-11-14T13:45:46.580Z,9.12
2023-11-14T13:48:34.731Z,9.13
2023-11-14T13:51:21.577Z,9.15
2023-11-14T13:54:11.006Z,9.15
2023-11-14T13:56:58.834Z,9.16
2023-11-14T13:59:46.822Z,9.17
2023-11-14T14:02:36.129Z,9.19
2023-11-14T14:05:22.795Z,9.16
2023-11-14T14:08:10.845Z,9.05
2023-11-14T14:10:57.896Z,9.05
2023-11-14T14:13:44.466Z,9.00
2023-11-14T14:16:30.877Z,8.93
2023-11-14T14:19:18.646Z,8.94
2023-11-14T14:22:06.262Z,8.93
2023-11-14T14:24:52.753Z,8.93
2023-11-14T14:27:39.214Z,8.94
2023-11-14T14:30:26.380Z,8.96
2023-11-14T14:33:13.105Z,8.97
2023-11-14T14:35:59.788Z,8.95
2023-11-14T14:38:47.886Z,8.98
2023-11-14T14:41:37.963Z,9.00
2023-11-14T14:44:27.464Z,9.00
2023-11-14T14:47:15.159Z,9.00
2023-11-14T14:50:06.209Z,9.01
2023-11-14T14:52:54.906Z,9.00
2023-11-14T14:55:41.460Z,9.00
2023-11-14T14:58:27.848Z,9.00
2023-11-14T15:01:15.358Z,8.99
2023-11-14T15:04:02.363Z,8.99
2023-11-14T15:06:49.113Z,8.98
2023-11-14T15:09:35.951Z,8.97
2023-11-14T15:12:23.427Z,8.97
2023-11-14T15:15:12.057Z,8.97
2023-11-14T15:17:59.962Z,8.96
2023-11-14T15:20:47.872Z,8.95
2023-11-14T15:23:34.592Z,8.93
2023-11-14T15:26:23.556Z,8.95
2023-11-14T15:29:10.894Z,8.93
2023-11-14T15:31:58.125Z,8.94
2023-11-14T15:34:44.677Z,8.92
2023-11-14T15:37:30.965Z,8.86
2023-11-14T15:40:19.337Z,8.91
2023-11-14T15:43:06.448Z,8.91
2023-11-14T15:45:53.268Z,8.92
2023-11-14T15:48:39.910Z,8.93
2023-11-14T15:51:26.895Z,8.93
2023-11-14T15:54:13.662Z,8.93
2023-11-14T15:57:00.488Z,8.94
2023-11-14T15:59:48.249Z,8.95
2023-11-14T16:02:34.835Z,8.94
2023-11-14T16:05:21.572Z,8.93
2023-11-14T16:08:08.884Z,8.94
2023-11-14T16:10:58.619Z,8.93
2023-11-14T16:13:45.383Z,8.94
2023-11-14T16:16:32.532Z,8.93
2023-11-14T16:19:22.751Z,8.94
2023-11-14T16:22:09.666Z,8.94
2023-11-14T16:24:56.628Z,8.94
2023-11-14T16:27:43.647Z,8.96
2023-11-14T16:30:30.842Z,8.96
2023-11-14T16:33:17.470Z,8.95
2023-11-14T16:36:05.392Z,8.96
2023-11-14T16:38:52.176Z,8.96
2023-11-14T16:41:39.038Z,8.96
2023-11-14T16:44:26.505Z,8.98
2023-11-14T16:47:13.713Z,8.96
2023-11-14T16:50:00.622Z,8.93
2023-11-14T16:52:48.059Z,8.91
2023-11-14T16:55:38.528Z,8.90
2023-11-14T16:58:25.319Z,8.89
2023-11-14T17:01:13.303Z,8.86
2023-11-14T17:04:01.825Z,8.89
2023-11-14T17:06:49.663Z,8.89
2023-11-14T17:09:36.155Z,8.90
2023-11-14T17:12:22.875Z,8.91
2023-11-14T17:15:10.334Z,8.91
2023-11-14T17:17:57.051Z,8.87
2023-11-14T17:20:43.701Z,8.90
2023-11-14T17:23:30.625Z,8.88
2023-11-14T17:26:21.308Z,8.90
2023-11-14T17:29:09.872Z,8.91
2023-11-14T17:32:00.648Z,8.92
2023-11-14T17:34:48.437Z,8.93
2023-11-14T17:37:37.246Z,8.93
2023-11-14T17:40:23.569Z,8.94
2023-11-14T17:43:10.362Z,8.95
2023-11-14T17:45:57.009Z,8.96
2023-11-14T17:48:44.578Z,8.94
2023-11-14T17:51:38.430Z,8.91
2023-11-14T17:54:26.569Z,8.90
2023-11-14T17:57:14.445Z,8.93
2023-11-14T18:00:01.310Z,8.94
2023-11-14T18:02:48.618Z,8.96
2023-11-14T18:05:35.664Z,8.96
2023-11-14T18:08:22.794Z,9.00
2023-11-14T18:11:09.685Z,9.01
2023-11-14T18:13:56.509Z,9.01
2023-11-14T18:16:44.076Z,9.03
2023-11-14T18:19:31.009Z,9.05
2023-11-14T18:22:17.846Z,9.05
2023-11-14T18:25:05.574Z,9.05
2023-11-14T18:27:52.023Z,9.06
2023-11-14T18:30:38.891Z,9.07
2023-11-14T18:33:25.506Z,9.10
2023-11-14T18:36:12.587Z,9.09
2023-11-14T18:38:59.425Z,9.08
2023-11-14T18:41:46.450Z,9.09
2023-11-14T18:44:34.368Z,9.07
2023-11-14T18:47:22.289Z,9.05
2023-11-14T18:50:10.439Z,9.05
2023-11-14T18:52:57.221Z,9.06
2023-11-14T18:55:45.711Z,9.03
2023-11-14T18:58:32.217Z,9.04
2023-11-14T19:01:23.068Z,9.04
2023-11-14T19:04:10.072Z,9.03
2023-11-14T19:06:56.942Z,9.04
2023-11-14T19:09:45.018Z,9.01
2023-11-14T19:12:31.503Z,9.03
2023-11-14T19:15:18.659Z,9.03
2023-11-14T19:18:05.549Z,9.03
2023-11-14T19:21:21.435Z,9.02
2023-11-14T19:24:00.048Z,9.02
2023-11-14T19:26:47.888Z,9.03
2023-11-14T19:29:34.483Z,9.05
2023-11-14T19:32:21.055Z,9.04
2023-11-14T19:35:08.165Z,9.03
2023-11-14T19:37:55.142Z,9.01
2023-11-14T19:40:41.712Z,8.98
2023-11-14T19:43:30.000Z,8.95
2023-11-14T19:46:16.615Z,8.97
2023-11-14T19:49:03.489Z,8.96
2023-11-14T19:51:54.734Z,8.95
2023-11-14T19:54:45.477Z,8.92
2023-11-14T19:57:33.032Z,8.93
2023-11-14T20:00:22.762Z,8.94
2023-11-14T20:03:09.546Z,8.93
2023-11-14T20:05:56.478Z,8.95
2023-11-14T20:08:43.436Z,8.93
2023-11-14T20:11:30.760Z,8.95
2023-11-14T20:14:19.026Z,8.95
2023-11-14T20:17:07.392Z,8.95
2023-11-14T20:19:57.098Z,8.94
2023-11-14T20:22:44.191Z,8.95
2023-11-14T20:25:31.206Z,8.97
2023-11-14T20:28:18.581Z,8.97
2023-11-14T20:31:05.698Z,8.96
2023-11-14T20:33:52.492Z,8.94
2023-11-14T20:36:39.101Z,8.93
2023-11-14T20:39:25.971Z,8.92
2023-11-14T20:42:12.568Z,8.89
2023-11-14T20:44:59.204Z,8.89
2023-11-14T20:47:46.297Z,8.88
2023-11-14T20:50:33.290Z,8.90
2023-11-14T20:53:19.793Z,8.91
2023-11-14T20:56:07.298Z,8.91
2023-11-14T20:58:54.802Z,8.91
2023-11-14T21:01:41.333Z,8.90
2023-11-14T21:04:29.012Z,8.89
2023-11-14T21:07:18.106Z,8.88
2023-11-14T21:10:05.391Z,8.88
2023-11-14T21:12:52.028Z,8.88
2023-11-14T21:15:39.077Z,8.87
2023-11-14T21:18:25.839Z,8.87
2023-11-14T21:21:12.763Z,8.85
2023-11-14T21:24:00.089Z,8.84
2023-11-14T21:26:46.758Z,8.82
2023-11-14T21:29:33.758Z,8.81
2023-11-14T21:32:20.991Z,8.78
2023-11-14T21:35:09.332Z,8.77
2023-11-14T21:37:55.829Z,8.77
2023-11-14T21:40:42.995Z,8.77
2023-11-14T21:43:30.641Z,8.78
2023-11-14T21:46:17.294Z,8.79
2023-11-14T21:49:06.267Z,8.81
2023-11-14T21:51:53.457Z,8.82
2023-11-14T21:54:40.197Z,8.83
2023-11-14T21:57:26.760Z,8.83
2023-11-14T22:00:14.974Z,8.79
2023-11-14T22:03:01.571Z,8.84
2023-11-14T22:05:50.752Z,8.85
2023-11-14T22:08:37.678Z,8.85
2023-11-14T22:11:24.450Z,8.86
2023-11-14T22:14:12.069Z,8.83
2023-11-14T22:16:58.868Z,8.86
2023-11-14T22:19:46.627Z,8.86
2023-11-14T22:22:33.268Z,8.85
2023-11-14T22:25:19.995Z,8.86
2023-11-14T22:28:06.461Z,8.86
2023-11-14T22:30:53.398Z,8.86
2023-11-14T22:33:39.873Z,8.85
2023-11-14T22:36:26.864Z,8.85
2023-11-14T22:39:16.263Z,8.82
2023-11-14T22:42:05.326Z,8.80
2023-11-14T22:44:52.056Z,8.78
2023-11-14T22:47:39.305Z,8.76
2023-11-14T22:50:26.018Z,8.76
2023-11-14T22:53:13.366Z,8.76
2023-11-14T22:56:00.255Z,8.75
2023-11-14T22:58:47.752Z,8.75
2023-11-14T23:01:38.318Z,8.74
2023-11-14T23:04:26.633Z,8.74
2023-11-14T23:07:13.597Z,8.74
2023-11-14T23:10:00.578Z,8.73
2023-11-14T23:12:47.517Z,8.71
2023-11-14T23:15:34.069Z,8.72
2023-11-14T23:18:21.386Z,8.73
2023-11-14T23:21:08.444Z,8.68
2023-11-14T23:23:55.183Z,8.68
2023-11-14T23:26:42.900Z,8.65
2023-11-14T23:29:29.616Z,8.62
2023-11-14T23:32:16.436Z,8.58
2023-11-14T23:35:03.722Z,8.57
2023-11-14T23:37:50.232Z,8.58
2023-11-14T23:40:37.468Z,8.56
2023-11-14T23:43:24.255Z,8.53
2023-11-14T23:46:11.629Z,8.48
2023-11-14T23:48:58.406Z,8.45
2023-11-14T23:51:45.085Z,8.45
2023-11-14T23:54:32.614Z,8.41
2023-11-14T23:57:19.613Z,8.38
